PWSweather.com
Personal Weather Stations
Station Observations
VPOKROGLO
Kal Nad Kanalom, PrimorskaSI

Kal Nad KanalomPrimorskaSI

Lat: 46.072, Lon: 13.734

Elevation: 2526

Station Type: WS-2355

http://www.okroglovreme.com

High Low Average
Temperature 75.7°F24.3°F 56.5°F13.6°F 62.8°F17.1°F
Dew Point 63.0°F17.2°F 51.4°F10.8°F 55.4°F13.0°F
Winds 4.6 mph SW7.4 mph SW Calm Calm 2.2 mph 3.5 mph
Wind Gusts 18.8 mph30.3 mph -- 7.0 mph11.3 mph
Humidity 84% 63% 77%
Pressure 29.86 in1011.20 in 29.81 in1009.50 in -
Precipitation 2.97 in75.40 in - -
Hour Temp Dew Point Humidity Winds Wind Gusts Pressure Precip Precip Rate Daily Precip Total
12:00 AM 58.3°F14.6°C 52.5°F11.4°C 81% 3.7 mph SW6.0 kmh SW 9.2 mph14.8 kmh 29.83 in1010.2 mb 0.02 in0.5 mm 0.00 in0.0 mm 0.02 in0.5 mm
12:15 AM 58.5°F14.7°C 52.3°F11.3°C 80% 4.2 mph SW6.8 kmh SW 11.0 mph17.7 kmh 29.84 in1010.5 mb 0.02 in0.5 mm 0.00 in0.0 mm 0.02 in0.5 mm
12:30 AM 58.6°F14.8°C 52.5°F11.4°C 80% 3.9 mph SSW6.3 kmh SSW 18.8 mph30.3 kmh 29.83 in1010.2 mb 0.02 in0.5 mm 0.00 in0.0 mm 0.02 in0.5 mm
12:45 AM 58.6°F14.8°C 52.5°F11.4°C 80% 3.4 mph WSW5.5 kmh WSW 8.9 mph14.3 kmh 29.84 in1010.5 mb 0.02 in0.5 mm 0.00 in0.0 mm 0.02 in0.5 mm
01:00 AM 58.6°F14.8°C 52.1°F11.2°C 79% 3.2 mph WSW5.1 kmh WSW 8.5 mph13.7 kmh 29.83 in1010.2 mb 0.00 in0.0 mm 0.00 in0.0 mm 0.02 in0.5 mm
01:15 AM 58.6°F14.8°C 52.1°F11.2°C 79% 3.7 mph WNW6.0 kmh WNW 18.3 mph29.5 kmh 29.83 in1010.2 mb 0.00 in0.0 mm 0.00 in0.0 mm 0.02 in0.5 mm
01:30 AM 58.3°F14.6°C 51.8°F11.0°C 79% 3.6 mph SW5.8 kmh SW 11.0 mph17.7 kmh 29.83 in1010.2 mb 0.00 in0.0 mm 0.00 in0.0 mm 0.02 in0.5 mm
01:45 AM 57.7°F14.3°C 51.6°F10.9°C 80% 2.8 mph WSW4.5 kmh WSW 8.3 mph13.4 kmh 29.84 in1010.5 mb 0.10 in2.5 mm 0.40 in10.2 mm 0.12 in3.0 mm
02:00 AM 56.8°F13.8°C 51.4°F10.8°C 82% 3.4 mph WSW5.5 kmh WSW 7.8 mph12.6 kmh 29.83 in1010.2 mb 0.39 in9.9 mm 0.39 in9.9 mm 0.41 in10.4 mm
02:15 AM 56.5°F13.6°C 51.4°F10.8°C 83% 3.1 mph SSW5.0 kmh SSW 9.8 mph15.8 kmh 29.84 in1010.5 mb 0.45 in11.4 mm 0.24 in6.1 mm 0.47 in11.9 mm
02:30 AM 56.5°F13.6°C 51.4°F10.8°C 83% 3.3 mph WSW5.3 kmh WSW 11.6 mph18.7 kmh 29.83 in1010.2 mb 0.55 in14.0 mm 0.40 in10.2 mm 0.57 in14.5 mm
02:45 AM 56.5°F13.6°C 51.7°F10.9°C 84% 2.5 mph WNW4.0 kmh WNW 7.2 mph11.6 kmh 29.83 in1010.2 mb 0.43 in10.9 mm 0.00 in0.0 mm 0.59 in15.0 mm
03:00 AM 56.5°F13.6°C 51.7°F10.9°C 84% 3.3 mph WSW5.3 kmh WSW 11.4 mph18.3 kmh 29.83 in1010.2 mb 0.19 in4.8 mm 0.00 in0.0 mm 0.59 in15.0 mm
03:15 AM 56.8°F13.8°C 51.7°F10.9°C 83% 3.6 mph WSW5.8 kmh WSW 8.9 mph14.3 kmh 29.82 in1009.8 mb 0.12 in3.0 mm 0.00 in0.0 mm 0.59 in15.0 mm
03:30 AM 56.8°F13.8°C 51.7°F10.9°C 83% 3.6 mph SW5.8 kmh SW 10.5 mph16.9 kmh 29.81 in1009.5 mb 0.02 in0.5 mm 0.00 in0.0 mm 0.59 in15.0 mm
03:45 AM 56.8°F13.8°C 51.4°F10.8°C 82% 4.0 mph SSW6.4 kmh SSW 13.0 mph20.9 kmh 29.82 in1009.8 mb 0.00 in0.0 mm 0.00 in0.0 mm 0.59 in15.0 mm
04:00 AM 57.0°F13.9°C 51.6°F10.9°C 82% 4.6 mph SW7.4 kmh SW 11.4 mph18.3 kmh 29.81 in1009.5 mb 0.00 in0.0 mm 0.00 in0.0 mm 0.59 in15.0 mm
04:15 AM 57.4°F14.1°C 51.9°F11.1°C 82% 4.3 mph SW6.9 kmh SW 13.9 mph22.4 kmh 29.82 in1009.8 mb 0.00 in0.0 mm 0.00 in0.0 mm 0.59 in15.0 mm
04:30 AM 57.4°F14.1°C 51.6°F10.9°C 81% 3.7 mph SW6.0 kmh SW 10.5 mph16.9 kmh 29.82 in1009.8 mb 0.00 in0.0 mm 0.00 in0.0 mm 0.59 in15.0 mm
04:45 AM 57.6°F14.2°C 52.1°F11.2°C 82% 3.7 mph SSW6.0 kmh SSW 9.4 mph15.1 kmh 29.82 in1009.8 mb 0.00 in0.0 mm 0.00 in0.0 mm 0.59 in15.0 mm
05:00 AM 57.7°F14.3°C 51.9°F11.1°C 81% 3.4 mph SW5.5 kmh SW 11.9 mph19.2 kmh 29.83 in1010.2 mb 0.00 in0.0 mm 0.00 in0.0 mm 0.59 in15.0 mm
05:15 AM 57.9°F14.4°C 52.1°F11.2°C 81% 4.1 mph SW6.6 kmh SW 14.5 mph23.3 kmh 29.82 in1009.8 mb 0.00 in0.0 mm 0.00 in0.0 mm 0.59 in15.0 mm
05:30 AM 58.3°F14.6°C 52.1°F11.2°C 80% 3.6 mph WSW5.8 kmh WSW 9.4 mph15.1 kmh 29.83 in1010.2 mb 0.00 in0.0 mm 0.00 in0.0 mm 0.59 in15.0 mm
05:45 AM 58.6°F14.8°C 52.5°F11.4°C 80% 3.6 mph SW5.8 kmh SW 9.4 mph15.1 kmh 29.82 in1009.8 mb 0.00 in0.0 mm 0.00 in0.0 mm 0.59 in15.0 mm
06:00 AM 58.8°F14.9°C 52.7°F11.5°C 80% 3.1 mph SSW5.0 kmh SSW 8.1 mph13.0 kmh 29.82 in1009.8 mb 0.00 in0.0 mm 0.00 in0.0 mm 0.59 in15.0 mm
06:15 AM 58.8°F14.9°C 52.3°F11.3°C 79% 4.2 mph SW6.8 kmh SW 11.9 mph19.2 kmh 29.83 in1010.2 mb 0.00 in0.0 mm 0.00 in0.0 mm 0.59 in15.0 mm
06:30 AM 59.2°F15.1°C 52.3°F11.3°C 78% 4.0 mph WSW6.4 kmh WSW 12.8 mph20.6 kmh 29.83 in1010.2 mb 0.00 in0.0 mm 0.00 in0.0 mm 0.59 in15.0 mm
06:45 AM 59.7°F15.4°C 52.5°F11.4°C 77% 4.2 mph NW6.8 kmh NW 15.0 mph24.1 kmh 29.83 in1010.2 mb 0.00 in0.0 mm 0.00 in0.0 mm 0.59 in15.0 mm
07:00 AM 60.1°F15.6°C 52.5°F11.4°C 76% 3.7 mph W6.0 kmh W 10.7 mph17.2 kmh 29.83 in1010.2 mb 0.00 in0.0 mm 0.00 in0.0 mm 0.59 in15.0 mm
07:15 AM 60.4°F15.8°C 52.8°F11.6°C 76% 3.9 mph SW6.3 kmh SW 8.3 mph13.4 kmh 29.84 in1010.5 mb 0.00 in0.0 mm 0.00 in0.0 mm 0.59 in15.0 mm
07:30 AM 61.2°F16.2°C 53.2°F11.8°C 75% 3.3 mph WSW5.3 kmh WSW 7.4 mph11.9 kmh 29.84 in1010.5 mb 0.00 in0.0 mm 0.00 in0.0 mm 0.59 in15.0 mm
07:45 AM 61.2°F16.2°C 52.8°F11.6°C 74% 3.9 mph WNW6.3 kmh WNW 9.6 mph15.4 kmh 29.84 in1010.5 mb 0.00 in0.0 mm 0.00 in0.0 mm 0.59 in15.0 mm
08:00 AM 60.6°F15.9°C 52.6°F11.4°C 75% 3.6 mph WSW5.8 kmh WSW 12.3 mph19.8 kmh 29.84 in1010.5 mb 0.00 in0.0 mm 0.00 in0.0 mm 0.59 in15.0 mm
08:15 AM 59.2°F15.1°C 52.0°F11.1°C 77% 3.0 mph WSW4.8 kmh WSW 8.3 mph13.4 kmh 29.84 in1010.5 mb 0.14 in3.6 mm 0.56 in14.2 mm 0.73 in18.5 mm
08:30 AM 58.6°F14.8°C 52.5°F11.4°C 80% 3.9 mph SW6.3 kmh SW 17.7 mph28.5 kmh 29.84 in1010.5 mb 0.16 in4.1 mm 0.08 in2.0 mm 0.75 in19.1 mm
08:45 AM 58.3°F14.6°C 52.5°F11.4°C 81% 3.1 mph NW5.0 kmh NW 8.9 mph14.3 kmh 29.85 in1010.8 mb 0.16 in4.1 mm 0.00 in0.0 mm 0.75 in19.1 mm
09:00 AM 58.3°F14.6°C 52.5°F11.4°C 81% 3.3 mph NW5.3 kmh NW 10.3 mph16.6 kmh 29.84 in1010.5 mb 0.16 in4.1 mm 0.00 in0.0 mm 0.75 in19.1 mm
09:15 AM 58.5°F14.7°C 53.0°F11.7°C 82% 3.3 mph WSW5.3 kmh WSW 9.2 mph14.8 kmh 29.84 in1010.5 mb 0.02 in0.5 mm 0.00 in0.0 mm 0.75 in19.1 mm
09:30 AM 58.8°F14.9°C 53.0°F11.7°C 81% 3.1 mph WSW5.0 kmh WSW 7.8 mph12.6 kmh 29.85 in1010.8 mb 0.00 in0.0 mm 0.00 in0.0 mm 0.75 in19.1 mm
09:45 AM 58.8°F14.9°C 53.0°F11.7°C 81% 3.0 mph N4.8 kmh N 10.7 mph17.2 kmh 29.85 in1010.8 mb 0.00 in0.0 mm 0.00 in0.0 mm 0.75 in19.1 mm
10:00 AM 58.8°F14.9°C 53.0°F11.7°C 81% 2.2 mph WNW3.5 kmh WNW 6.7 mph10.8 kmh 29.85 in1010.8 mb 0.00 in0.0 mm 0.00 in0.0 mm 0.75 in19.1 mm
10:15 AM 59.2°F15.1°C 53.7°F12.1°C 82% 2.9 mph W4.7 kmh W 9.8 mph15.8 kmh 29.86 in1011.2 mb 0.00 in0.0 mm 0.00 in0.0 mm 0.75 in19.1 mm
10:30 AM 59.5°F15.3°C 54.0°F12.2°C 82% 3.2 mph W5.1 kmh W 10.3 mph16.6 kmh 29.85 in1010.8 mb 0.00 in0.0 mm 0.00 in0.0 mm 0.75 in19.1 mm
10:45 AM 61.2°F16.2°C 55.6°F13.1°C 82% 3.7 mph SW6.0 kmh SW 11.2 mph18.0 kmh 29.85 in1010.8 mb 0.00 in0.0 mm 0.00 in0.0 mm 0.75 in19.1 mm
11:00 AM 61.7°F16.5°C 55.8°F13.2°C 81% 2.9 mph SW4.7 kmh SW 8.7 mph14.0 kmh 29.85 in1010.8 mb 0.00 in0.0 mm 0.00 in0.0 mm 0.75 in19.1 mm
11:15 AM 62.1°F16.7°C 55.8°F13.2°C 80% 4.0 mph WSW6.4 kmh WSW 10.3 mph16.6 kmh 29.85 in1010.8 mb 0.00 in0.0 mm 0.00 in0.0 mm 0.75 in19.1 mm
11:30 AM 62.4°F16.9°C 56.2°F13.4°C 80% 3.8 mph W6.1 kmh W 9.2 mph14.8 kmh 29.85 in1010.8 mb 0.00 in0.0 mm 0.00 in0.0 mm 0.75 in19.1 mm
11:45 AM 62.4°F16.9°C 55.8°F13.2°C 79% 3.4 mph WSW5.5 kmh WSW 8.1 mph13.0 kmh 29.84 in1010.5 mb 0.00 in0.0 mm 0.00 in0.0 mm 0.75 in19.1 mm
12:00 PM 63.1°F17.3°C 56.5°F13.6°C 79% 3.6 mph WSW5.8 kmh WSW 10.3 mph16.6 kmh 29.85 in1010.8 mb 0.00 in0.0 mm 0.00 in0.0 mm 0.75 in19.1 mm
12:28 PM 63.0°F17.2°C 56.0°F13.3°C 78% Calm Calm -- 29.85 in1010.8 mb 0.00 in0.0 mm 0.00 in0.0 mm 0.75 in19.1 mm
12:30 PM 62.1°F16.7°C 55.5°F13.1°C 79% 3.5 mph WSW5.6 kmh WSW 6.9 mph11.1 kmh 29.85 in1010.8 mb 0.00 in0.0 mm 0.00 in0.0 mm 0.75 in19.1 mm
12:37 PM 63.0°F17.2°C 56.0°F13.3°C 78% 1.2 mph W1.9 kmh W 4.0 mph6.4 kmh 29.85 in1010.8 mb 0.00 in0.0 mm 0.00 in0.0 mm 0.75 in19.1 mm
12:45 PM 62.6°F17.0°C 56.0°F13.3°C 79% 2.8 mph WSW4.5 kmh WSW 8.5 mph13.7 kmh 29.85 in1010.8 mb 0.00 in0.0 mm 0.00 in0.0 mm 0.75 in19.1 mm
01:00 PM 63.5°F17.5°C 56.9°F13.8°C 79% 2.7 mph WSW4.3 kmh WSW 6.9 mph11.1 kmh 29.85 in1010.8 mb 0.00 in0.0 mm 0.00 in0.0 mm 0.75 in19.1 mm
01:15 PM 64.9°F18.3°C 57.6°F14.2°C 77% 2.6 mph WSW4.2 kmh WSW 5.8 mph9.3 kmh 29.85 in1010.8 mb 0.00 in0.0 mm 0.00 in0.0 mm 0.75 in19.1 mm
01:30 PM 65.1°F18.4°C 57.4°F14.1°C 76% 2.9 mph W4.7 kmh W 8.3 mph13.4 kmh 29.84 in1010.5 mb 0.00 in0.0 mm 0.00 in0.0 mm 0.75 in19.1 mm
01:45 PM 66.4°F19.1°C 58.2°F14.6°C 75% 3.1 mph W5.0 kmh W 8.9 mph14.3 kmh 29.84 in1010.5 mb 0.00 in0.0 mm 0.00 in0.0 mm 0.75 in19.1 mm
02:00 PM 67.8°F19.9°C 58.8°F14.9°C 73% 2.1 mph WSW3.4 kmh WSW 8.1 mph13.0 kmh 29.84 in1010.5 mb 0.00 in0.0 mm 0.00 in0.0 mm 0.75 in19.1 mm
02:15 PM 68.2°F20.1°C 58.8°F14.9°C 72% 2.2 mph WSW3.5 kmh WSW 7.4 mph11.9 kmh 29.83 in1010.2 mb 0.00 in0.0 mm 0.00 in0.0 mm 0.75 in19.1 mm
02:30 PM 67.6°F19.8°C 58.3°F14.6°C 72% 1.3 mph NW2.1 kmh NW 4.0 mph6.4 kmh 29.84 in1010.5 mb 0.00 in0.0 mm 0.00 in0.0 mm 0.75 in19.1 mm
02:45 PM 67.5°F19.7°C 58.5°F14.7°C 73% 1.0 mph W1.6 kmh W 3.8 mph6.1 kmh 29.84 in1010.5 mb 0.00 in0.0 mm 0.00 in0.0 mm 0.75 in19.1 mm
03:00 PM 69.1°F20.6°C 60.1°F15.6°C 73% 1.0 mph SW1.6 kmh SW 4.3 mph6.9 kmh 29.84 in1010.5 mb 0.00 in0.0 mm 0.00 in0.0 mm 0.75 in19.1 mm
03:15 PM 71.4°F21.9°C 61.5°F16.4°C 71% 1.0 mph WSW1.6 kmh WSW 4.5 mph7.2 kmh 29.83 in1010.2 mb 0.00 in0.0 mm 0.00 in0.0 mm 0.75 in19.1 mm
03:30 PM 72.7°F22.6°C 61.9°F16.6°C 69% 0.8 mph SW1.3 kmh SW 4.0 mph6.4 kmh 29.82 in1009.8 mb 0.00 in0.0 mm 0.00 in0.0 mm 0.75 in19.1 mm
03:45 PM 72.0°F22.2°C 60.8°F16.0°C 68% 0.8 mph SW1.3 kmh SW 3.8 mph6.1 kmh 29.83 in1010.2 mb 0.00 in0.0 mm 0.00 in0.0 mm 0.75 in19.1 mm
04:00 PM 72.7°F22.6°C 61.9°F16.6°C 69% 1.0 mph SSW1.6 kmh SSW 4.3 mph6.9 kmh 29.82 in1009.8 mb 0.00 in0.0 mm 0.00 in0.0 mm 0.75 in19.1 mm
04:15 PM 73.4°F23.0°C 62.2°F16.8°C 68% 0.4 mph SW0.6 kmh SW 3.8 mph6.1 kmh 29.82 in1009.8 mb 0.00 in0.0 mm 0.00 in0.0 mm 0.75 in19.1 mm
04:30 PM 73.9°F23.3°C 62.3°F16.8°C 67% 0.7 mph SW1.1 kmh SW 3.6 mph5.8 kmh 29.82 in1009.8 mb 0.00 in0.0 mm 0.00 in0.0 mm 0.75 in19.1 mm
04:40 PM 73.4°F23.0°C 62.2°F16.8°C 68% Calm Calm -- 29.83 in1010.2 mb 0.00 in0.0 mm 0.00 in0.0 mm 0.75 in19.1 mm
04:45 PM 74.1°F23.4°C 62.5°F16.9°C 67% 0.8 mph SW1.3 kmh SW 3.1 mph5.0 kmh 29.83 in1010.2 mb 0.00 in0.0 mm 0.00 in0.0 mm 0.75 in19.1 mm
05:00 PM 75.6°F24.2°C 63.0°F17.2°C 65% 0.2 mph SE0.3 kmh SE 2.2 mph3.5 kmh 29.82 in1009.8 mb 0.00 in0.0 mm 0.00 in0.0 mm 0.75 in19.1 mm
05:15 PM 75.7°F24.3°C 62.2°F16.8°C 63% 0.7 mph W1.1 kmh W 3.6 mph5.8 kmh 29.81 in1009.5 mb 0.00 in0.0 mm 0.00 in0.0 mm 0.75 in19.1 mm
05:30 PM 73.9°F23.3°C 61.0°F16.1°C 64% 0.7 mph WSW1.1 kmh WSW 3.1 mph5.0 kmh 29.82 in1009.8 mb 0.00 in0.0 mm 0.00 in0.0 mm 0.75 in19.1 mm
05:45 PM 72.3°F22.4°C 59.9°F15.5°C 65% 0.7 mph W1.1 kmh W 5.1 mph8.2 kmh 29.82 in1009.8 mb 0.00 in0.0 mm 0.00 in0.0 mm 0.75 in19.1 mm
06:00 PM 71.8°F22.1°C 60.2°F15.7°C 67% 0.8 mph WSW1.3 kmh WSW 2.9 mph4.7 kmh 29.82 in1009.8 mb 0.00 in0.0 mm 0.00 in0.0 mm 0.75 in19.1 mm
06:15 PM 70.9°F21.6°C 59.4°F15.2°C 67% 0.7 mph WNW1.1 kmh WNW 3.4 mph5.5 kmh 29.82 in1009.8 mb 0.00 in0.0 mm 0.00 in0.0 mm 0.75 in19.1 mm
06:45 PM 68.2°F20.1°C 57.6°F14.2°C 69% 1.3 mph NW2.1 kmh NW 4.0 mph6.4 kmh 29.82 in1009.8 mb 0.00 in0.0 mm 0.00 in0.0 mm 0.76 in19.3 mm
07:00 PM 67.3°F19.6°C 57.6°F14.2°C 71% 0.2 mph WNW0.3 kmh WNW 2.5 mph4.0 kmh 29.82 in1009.8 mb 0.00 in0.0 mm 0.00 in0.0 mm 0.76 in19.3 mm
07:15 PM 66.0°F18.9°C 56.3°F13.5°C 71% 0.3 mph NNE0.5 kmh NNE 2.0 mph3.2 kmh 29.82 in1009.8 mb 0.00 in0.0 mm 0.00 in0.0 mm 0.76 in19.3 mm
07:30 PM 64.9°F18.3°C 56.1°F13.4°C 73% 0.4 mph NNE0.6 kmh NNE 3.8 mph6.1 kmh 29.82 in1009.8 mb 0.00 in0.0 mm 0.00 in0.0 mm 0.76 in19.3 mm
07:45 PM 64.2°F17.9°C 55.8°F13.2°C 74% 0.8 mph NNE1.3 kmh NNE 3.8 mph6.1 kmh 29.83 in1010.2 mb 0.00 in0.0 mm 0.00 in0.0 mm 0.76 in19.3 mm
08:00 PM 64.0°F17.8°C 56.0°F13.3°C 75% 0.3 mph E0.5 kmh E 3.1 mph5.0 kmh 29.83 in1010.2 mb 0.00 in0.0 mm 0.00 in0.0 mm 0.76 in19.3 mm
08:15 PM 63.5°F17.5°C 55.4°F13.0°C 75% 0.2 mph NNE0.3 kmh NNE 3.1 mph5.0 kmh 29.83 in1010.2 mb 0.00 in0.0 mm 0.00 in0.0 mm 0.76 in19.3 mm
08:30 PM 63.3°F17.4°C 56.0°F13.3°C 77% 0.4 mph N0.6 kmh N 3.1 mph5.0 kmh 29.83 in1010.2 mb 0.00 in0.0 mm 0.00 in0.0 mm 0.76 in19.3 mm
08:38 PM 63.3°F17.4°C 56.0°F13.3°C 77% Calm Calm -- 29.83 in1010.2 mb 0.00 in0.0 mm 0.00 in0.0 mm 0.76 in19.3 mm
08:45 PM 63.1°F17.3°C 55.8°F13.2°C 77% Calm Calm -- 29.83 in1010.2 mb 0.00 in0.0 mm 0.00 in0.0 mm 0.73 in18.5 mm
09:00 PM 62.8°F17.1°C 55.5°F13.1°C 77% 0.1 mph SSE0.2 kmh SSE 1.6 mph2.6 kmh 29.83 in1010.2 mb 0.00 in0.0 mm 0.00 in0.0 mm 0.73 in18.5 mm
09:15 PM 62.4°F16.9°C 55.5°F13.1°C 78% Calm Calm 1.1 mph1.8 kmh 29.83 in1010.2 mb 0.00 in0.0 mm 0.00 in0.0 mm 0.73 in18.5 mm
09:19 PM 62.4°F16.9°C 55.5°F13.1°C 78% Calm Calm -- 29.83 in1010.2 mb 0.00 in0.0 mm 0.00 in0.0 mm 0.73 in18.5 mm
09:30 PM 62.4°F16.9°C 55.5°F13.1°C 78% Calm Calm -- 29.84 in1010.5 mb 0.00 in0.0 mm 0.00 in0.0 mm 0.76 in19.3 mm
09:35 PM 62.4°F16.9°C 55.5°F13.1°C 78% Calm Calm -- 29.84 in1010.5 mb 0.00 in0.0 mm 0.00 in0.0 mm 0.76 in19.3 mm
09:45 PM 61.9°F16.6°C 55.3°F12.9°C 79% Calm Calm -- 29.84 in1010.5 mb 0.00 in0.0 mm 0.00 in0.0 mm 0.73 in18.5 mm
10:30 PM 61.5°F16.4°C 55.3°F12.9°C 80% 0.2 mph NNE0.3 kmh NNE 2.0 mph3.2 kmh 29.84 in1010.5 mb 0.00 in0.0 mm 0.00 in0.0 mm 0.76 in19.3 mm
10:45 PM 61.9°F16.6°C 56.0°F13.3°C 81% 0.1 mph ENE0.2 kmh ENE 2.0 mph3.2 kmh 29.84 in1010.5 mb 0.00 in0.0 mm 0.00 in0.0 mm 0.76 in19.3 mm
11:00 PM 62.2°F16.8°C 56.3°F13.5°C 81% 0.3 mph SE0.5 kmh SE 2.7 mph4.3 kmh 29.84 in1010.5 mb 0.00 in0.0 mm 0.00 in0.0 mm 0.73 in18.5 mm
11:15 PM 62.8°F17.1°C 57.2°F14.0°C 82% 0.3 mph SSW0.5 kmh SSW 3.6 mph5.8 kmh 29.85 in1010.8 mb 0.00 in0.0 mm 0.00 in0.0 mm 0.73 in18.5 mm
11:30 PM 62.8°F17.1°C 56.9°F13.8°C 81% Calm Calm 1.6 mph2.6 kmh 29.84 in1010.5 mb 0.00 in0.0 mm 0.00 in0.0 mm 0.73 in18.5 mm
11:45 PM 63.3°F17.4°C 57.7°F14.3°C 82% 0.4 mph S0.6 kmh S 3.1 mph5.0 kmh 29.84 in1010.5 mb 0.00 in0.0 mm 0.00 in0.0 mm 0.73 in18.5 mm